Gemlik Airfield

TR-0024 · Bursa, 土耳其

使用的METAR站距离机场43 km。
罗盘
风向 的 风向 330°
风: 3 kt, 1 beaufort

添加一条跑道以查看侧风和逆风信息。

添置 跑道
0 ft 1.000 2.000 3.000 4.000 5.000
Cloud Cloud Cloud Cloud Cloud Cloud
BKN 3.000
METAR LTBR 032220Z 33003KT 7000 BKN030 07/07 Q1015 NOSIG RMK RWY07 01003KT

METAR Gemlik Airfield - TR-0024

Gemlik Airfield是,土耳其中的小机场。 该机场位于纬度40,39850和经度29,08950。 这个机场没有ICAO代码,我们使用TR-0024作为参考。 机场在Istanbul FIR中。

该航空气象观测是针对Bursa Yenişehir Airport在2024年3月4日 01:20, 当地时间进行的。

机场观察

风向为330°,速度为3 kt。

可见度为7 km。

有碎云在3.000 ft的高度。 破损或更高的上限为3.000 ft。

温度为7 °C,阵风为5 °C。 露点为7 °C,相对湿度为100%。 海平面上的气压为1015 hPa (QNH)。

白天

今天,太阳从07:33升起,在18:57降落。 这适用于Gemlik Airfield,世界夏令时可能有所不同。 当地时间与世界标准时间之间的时差为+3 小时。 当前,没有夏令时有效。

公司介绍

我们没有关于这个机场的公司信息。

体会

到Vliegles.nl去找飞行课程,跳伞和其他飞行体验。 浏览页面,了解Gemlik Airfield附近所有可用的活动。 你也可以使用搜索功能来寻找你所在地附近的特定飞行课程、跳伞或其他飞行体验。

乌云

3.000 ft BKN 碎云

温度 & 天气

温度 7 °C
露点 7 °C
相对湿度 100%
风寒 5 °C
Kp-index 4 (0-9)

评论

RWY07 01003KT

白天

日出
07:31 (5:48)
中午
13:13
日落
18:55

小工具

你想在你的网站上有一个关于Gemlik Airfield的当前航空天气(METAR)的小部件吗?

显示HTML代码
?>